Time;durP1;ratioP1;P1;durP2;ratioP2;P2;SDS_P1;SDS_P2;PMS_P1;PMS_P2;Temp;Humidity;BMP_temperature;BMP_pressure;BME280_temperature;BME280_humidity;BME280_pressure;Samples;Min_cycle;Max_cycle;Signal;HPM_P1;HPM_P2
2024/04/03 00:01:11;;;;;;;6.57;1.60;;;;;;;12.25;86.83;100113.66;5054790;27;96744;-80
2024/04/03 00:03:38;;;;;;;6.05;1.48;;;;;;;12.67;85.16;100107.84;5062025;27;96811;-80
2024/04/03 00:06:04;;;;;;;2.72;1.50;;;;;;;12.35;86.15;100109.56;5057208;27;98902;-80
2024/04/03 00:08:31;;;;;;;4.28;1.35;;;;;;;12.47;86.24;100109.88;5059855;27;99291;-80
2024/04/03 00:10:57;;;;;;;1.80;1.08;;;;;;;12.64;84.83;100112.47;5059023;27;96803;-78
2024/04/03 00:13:23;;;;;;;;;;;;;;;12.30;86.58;100105.44;5055933;27;96684;-79
2024/04/03 00:15:48;;;;;;;4.18;1.20;;;;;;;12.78;84.09;100107.28;5050338;27;100469;-78
2024/04/03 00:18:14;;;;;;;;;;;;;;;12.46;85.22;100111.66;5063972;27;97482;-80
2024/04/03 00:20:39;;;;;;;2.90;1.30;;;;;;;12.08;86.69;100097.75;5055471;27;96847;-79
2024/04/03 00:23:06;;;;;;;;;;;;;;;12.33;86.70;100103.50;5059125;27;97183;-79
2024/04/03 00:25:33;;;;;;;4.00;1.50;;;;;;;12.83;83.64;100115.81;5061696;27;100957;-80
2024/04/03 00:27:59;;;;;;;4.43;1.48;;;;;;;12.60;84.23;100103.81;5055673;27;101677;-79
2024/04/03 00:30:24;;;;;;;2.20;1.27;;;;;;;13.07;82.74;100114.47;5060915;27;96724;-80
2024/04/03 00:32:50;;;;;;;;;;;;;;;12.44;85.88;100102.06;5052409;27;97784;-81
2024/04/03 00:35:16;;;;;;;5.57;1.73;;;;;;;12.53;85.52;100113.06;5056851;27;97853;-81
2024/04/03 00:37:42;;;;;;;;;;;;;;;12.19;86.64;100116.63;5057597;27;98723;-82
2024/04/03 00:40:09;;;;;;;5.53;1.58;;;;;;;12.50;85.99;100112.34;5056571;27;96868;-82
2024/04/03 00:42:36;;;;;;;4.88;1.33;;;;;;;12.73;83.93;100111.97;5059523;27;97163;-81
2024/04/03 00:45:02;;;;;;;3.50;1.38;;;;;;;12.61;84.18;100104.66;5057938;27;98235;-82
2024/04/03 00:47:29;;;;;;;;;;;;;;;12.45;85.51;100104.66;5058276;27;97466;-81
2024/04/03 00:49:56;;;;;;;5.67;1.93;;;;;;;12.74;84.96;100111.88;5056153;27;97037;-81
2024/04/03 00:52:22;;;;;;;5.82;1.95;;;;;;;12.97;83.70;100112.41;5057522;27;96781;-82
2024/04/03 00:54:48;;;;;;;8.05;1.92;;;;;;;13.14;82.35;100099.09;5055004;27;99996;-80
2024/04/03 00:57:15;;;;;;;;;;;;;;;12.58;85.02;100108.34;5057121;27;97651;-81
2024/04/03 00:59:42;;;;;;;6.68;1.95;;;;;;;12.84;83.65;100101.63;5052454;27;96736;-81
2024/04/03 01:02:09;;;;;;;4.07;1.50;;;;;;;12.64;83.92;100110.66;5058565;27;96785;-81
2024/04/03 01:04:34;;;;;;;6.70;2.47;;;;;;;12.81;83.84;100096.50;5054565;27;99296;-81
2024/04/03 01:07:02;;;;;;;;;;;;;;;12.46;84.27;100106.38;5060181;27;98778;-81
2024/04/03 01:09:27;;;;;;;3.83;2.03;;;;;;;12.74;84.77;100098.63;5057415;27;96703;-82
2024/04/03 01:11:54;;;;;;;;;;;;;;;12.91;83.16;100097.72;5056037;27;96835;-81
2024/04/03 01:14:19;;;;;;;4.60;1.80;;;;;;;12.61;85.29;100092.28;5056292;27;99179;-82
2024/04/03 01:16:47;;;;;;;;;;;;;;;13.02;82.94;100090.00;5057844;27;97412;-82
2024/04/03 01:19:12;;;;;;;5.00;2.15;;;;;;;13.20;81.80;100098.75;5057206;27;96884;-82
2024/04/03 01:21:38;;;;;;;;;;;;;;;13.02;81.82;100094.44;5063264;27;96793;-82
2024/04/03 01:24:05;;;;;;;5.30;2.17;;;;;;;12.94;82.15;100097.53;5056879;27;98351;-80
2024/04/03 01:26:32;;;;;;;5.30;1.88;;;;;;;12.81;82.67;100091.19;5056657;27;98663;-81
2024/04/03 01:28:57;;;;;;;2.80;1.70;;;;;;;12.80;83.70;100100.06;5058773;27;97103;-80
2024/04/03 01:31:23;;;;;;;;;;;;;;;12.72;85.79;100097.00;5064288;27;96695;-83
2024/04/03 01:33:49;;;;;;;5.55;2.00;;;;;;;12.78;85.96;100092.22;5061576;27;97542;-83
2024/04/03 01:36:16;;;;;;;;;;;;;;;12.53;87.92;100094.50;5064616;27;98855;-82
2024/04/03 01:38:41;;;;;;;6.40;2.35;;;;;;;12.43;88.64;100092.41;5060180;27;96678;-81
2024/04/03 01:41:09;;;;;;;;;;;;;;;12.58;88.77;100081.84;5055575;27;96981;-81
2024/04/03 01:43:34;;;;;;;5.70;2.65;;;;;;;12.92;86.81;100083.50;5055400;27;100732;-82
2024/04/03 01:46:01;;;;;;;;;;;;;;;13.22;84.73;100072.16;5057236;27;98702;-82
2024/04/03 01:48:26;;;;;;;7.28;2.67;;;;;;;13.21;83.71;100081.91;5061485;27;97368;-82
2024/04/03 01:50:52;;;;;;;;;;;;;;;12.61;86.15;100088.75;5057934;27;96710;-82
2024/04/03 01:53:18;;;;;;;3.90;2.50;;;;;;;12.43;87.38;100073.88;5058093;27;98484;-81
2024/04/03 01:55:52;;;;;;;;;;;;;;;12.57;86.74;100081.94;5056987;27;98789;-82
2024/04/03 01:58:19;;;;;;;4.32;2.55;;;;;;;12.58;86.16;100083.66;5056971;27;96786;-82
2024/04/03 02:00:46;;;;;;;6.38;2.40;;;;;;;12.48;86.14;100090.38;5056195;27;96795;-82
2024/04/03 02:03:12;;;;;;;4.57;2.67;;;;;;;12.26;87.05;100082.72;5062269;27;98487;-82
2024/04/03 02:05:38;;;;;;;;;;;;;;;12.25;87.74;100084.50;5064501;27;98660;-82
2024/04/03 02:08:04;;;;;;;6.25;2.58;;;;;;;12.59;85.51;100080.91;5065628;27;96740;-82
2024/04/03 02:10:31;;;;;;;8.23;3.05;;;;;;;12.55;84.91;100081.16;5065251;27;97164;-80
2024/04/03 02:12:56;;;;;;;8.20;3.03;;;;;;;12.65;84.81;100074.44;5059749;27;99214;-82
2024/04/03 02:15:23;;;;;;;;;;;;;;;12.99;82.97;100074.28;5062051;27;99062;-81
2024/04/03 02:17:49;;;;;;;4.75;2.35;;;;;;;12.73;83.22;100072.22;5063974;27;96878;-82
2024/04/03 02:20:15;;;;;;;;;;;;;;;12.41;85.09;100073.06;5052713;27;98819;-81
2024/04/03 02:22:41;;;;;;;6.53;2.65;;;;;;;12.45;85.05;100062.25;5070543;27;98821;-81
2024/04/03 02:25:07;;;;;;;;;;;;;;;12.53;84.79;100069.78;5062005;27;98793;-82
2024/04/03 02:27:32;;;;;;;9.40;3.38;;;;;;;12.08;87.23;100067.81;5056992;27;97484;-82
2024/04/03 02:29:58;;;;;;;;;;;;;;;12.17;87.07;100073.44;5059025;27;97023;-82
2024/04/03 02:32:25;;;;;;;6.85;2.90;;;;;;;12.31;86.01;100065.63;5056282;27;99127;-82
2024/04/03 02:34:54;;;;;;;7.80;3.10;;;;;;;12.60;84.64;100065.88;5055734;27;97818;-83
2024/04/03 02:37:19;;;;;;;5.38;2.70;;;;;;;12.27;86.13;100053.47;5056985;27;97096;-83
2024/04/03 02:39:46;;;;;;;;;;;;;;;12.44;86.06;100059.69;5053007;27;96753;-79
2024/04/03 02:42:11;;;;;;;5.10;2.67;;;;;;;12.51;84.50;100061.06;5047276;27;99417;-79
2024/04/03 02:44:37;;;;;;;;;;;;;;;12.59;84.52;100057.06;5051269;27;98732;-79
2024/04/03 02:47:03;;;;;;;9.18;3.65;;;;;;;12.72;84.10;100063.41;5045222;27;96814;-79
2024/04/03 02:49:31;;;;;;;;;;;;;;;12.70;83.95;100062.63;5050419;27;96866;-79
2024/04/03 02:51:56;;;;;;;6.68;3.35;;;;;;;12.85;83.28;100060.94;5045951;27;99436;-78
2024/04/03 02:54:22;;;;;;;;;;;;;;;12.61;83.85;100051.66;5047112;27;99225;-79
2024/04/03 02:56:47;;;;;;;8.63;3.40;;;;;;;12.66;84.23;100062.88;5047223;27;96972;-80
2024/04/03 02:59:14;;;;;;;;;;;;;;;12.45;84.75;100056.09;5055907;27;96926;-81
2024/04/03 03:01:39;;;;;;;7.05;3.47;;;;;;;12.31;85.30;100056.84;5055185;27;98270;-81
2024/04/03 03:04:05;;;;;;;;;;;;;;;12.18;86.52;100051.34;5062199;27;101589;-81
2024/04/03 03:06:32;;;;;;;6.57;3.50;;;;;;;12.46;85.34;100063.97;5052185;27;97012;-81
2024/04/03 03:08:59;;;;;;;7.57;3.95;;;;;;;12.44;86.22;100065.84;5053679;27;96849;-80
2024/04/03 03:11:24;;;;;;;6.75;4.40;;;;;;;12.23;88.24;100059.03;5055862;27;98998;-80
2024/04/03 03:13:50;;;;;;;;;;;;;;;12.47;88.02;100065.66;5057341;27;99265;-81
2024/04/03 03:16:20;;;;;;;8.88;4.15;;;;;;;12.82;86.44;100063.75;5055591;27;97482;-81
2024/04/03 03:18:47;;;;;;;8.73;4.00;;;;;;;12.72;86.69;100055.47;5058031;27;96763;-80
2024/04/03 03:21:12;;;;;;;10.10;4.45;;;;;;;12.43;88.92;100072.06;5055632;27;99564;-80
2024/04/03 03:23:39;;;;;;;;;;;;;;;12.77;88.24;100071.97;5055763;27;97290;-80
2024/04/03 03:26:05;;;;;;;8.07;4.50;;;;;;;13.01;86.60;100077.69;5054268;27;97519;-80
2024/04/03 03:28:31;;;;;;;;;;;;;;;12.90;86.16;100079.22;5058138;27;96875;-81
2024/04/03 03:30:58;;;;;;;9.20;4.22;;;;;;;12.34;89.50;100073.41;5056323;27;100378;-81
2024/04/03 03:33:25;;;;;;;9.75;4.90;;;;;;;12.17;91.49;100078.75;5059060;27;98848;-82
2024/04/03 03:35:52;;;;;;;13.70;4.70;;;;;;;12.43;90.03;100079.16;5049831;27;96599;-79
2024/04/03 03:38:18;;;;;;;7.68;4.70;;;;;;;12.45;90.57;100078.16;5053978;27;96898;-79
2024/04/03 03:40:46;;;;;;;8.18;4.47;;;;;;;12.92;88.09;100088.81;5051508;27;98949;-78
2024/04/03 03:43:13;;;;;;;11.35;5.88;;;;;;;13.71;85.58;100102.91;5050782;27;98794;-79
2024/04/03 03:45:44;;;;;;;11.30;5.53;;;;;;;13.86;86.77;100103.78;5050263;27;96728;-78
2024/04/03 03:48:10;;;;;;;10.60;4.20;;;;;;;13.37;87.75;100100.47;5049192;27;96829;-78
2024/04/03 03:53:20;;;;;;;15.07;4.22;;;;;;;13.66;86.40;100102.28;5043881;27;97232;-79
2024/04/03 03:55:48;;;;;;;7.15;3.25;;;;;;;13.78;85.59;100108.69;5051647;27;96782;-78
2024/04/03 03:58:14;;;;;;;5.47;3.15;;;;;;;14.13;83.96;100107.44;5047028;27;96727;-79
2024/04/03 04:00:40;;;;;;;5.68;3.15;;;;;;;14.30;82.74;100122.38;5056983;27;99462;-78
2024/04/03 04:03:07;;;;;;;4.57;3.00;;;;;;;14.47;82.14;100122.22;5053790;27;99014;-78
2024/04/03 04:05:34;;;;;;;5.60;2.83;;;;;;;14.35;82.30;100125.59;5063255;27;96705;-77
2024/04/03 04:07:59;;;;;;;8.32;3.08;;;;;;;14.22;82.88;100129.97;5052988;27;97571;-79
2024/04/03 04:10:25;;;;;;;;;;;;;;;14.57;82.24;100133.16;5060130;27;97634;-81
2024/04/03 04:12:53;;;;;;;10.52;3.85;;;;;;;14.66;80.99;100128.13;5059512;27;98819;-80
2024/04/03 04:15:20;;;;;;;5.38;2.60;;;;;;;14.38;81.62;100137.88;5052863;27;96724;-79
2024/04/03 04:17:45;;;;;;;7.32;3.25;;;;;;;14.13;83.22;100141.13;5048638;27;96757;-79
2024/04/03 04:20:12;;;;;;;;;;;;;;;13.70;85.63;100143.66;5053740;27;97912;-80
2024/04/03 04:22:37;;;;;;;4.13;2.65;;;;;;;13.40;86.86;100146.25;5061153;27;99020;-79
2024/04/03 04:25:04;;;;;;;;;;;;;;;13.03;87.92;100144.78;5056265;27;97666;-79
2024/04/03 04:27:30;;;;;;;5.57;2.75;;;;;;;13.26;87.33;100150.63;5055141;27;96838;-80
2024/04/03 04:29:58;;;;;;;5.60;2.92;;;;;;;12.49;89.99;100145.06;5053527;27;99194;-79
2024/04/03 04:32:23;;;;;;;7.25;3.10;;;;;;;12.50;91.55;100150.31;5053653;27;99618;-79
2024/04/03 04:34:50;;;;;;;;;;;;;;;12.25;91.93;100149.88;5052145;27;96895;-79
2024/04/03 04:37:16;;;;;;;9.60;3.15;;;;;;;12.67;90.85;100150.25;5046932;27;96826;-79
2024/04/03 04:39:42;;;;;;;9.40;3.15;;;;;;;12.61;90.76;100157.66;5050339;27;98967;-79
2024/04/03 04:42:08;;;;;;;5.80;3.13;;;;;;;12.46;91.44;100156.72;5043343;27;101182;-79
2024/04/03 04:44:34;;;;;;;;;;;;;;;12.39;91.31;100160.63;5050968;27;96798;-79
2024/04/03 04:47:01;;;;;;;8.23;3.40;;;;;;;12.33;91.81;100164.44;5052515;27;97040;-81
2024/04/03 04:49:28;;;;;;;5.00;3.25;;;;;;;12.60;90.99;100158.63;5049133;27;98860;-79
2024/04/03 04:51:53;;;;;;;8.20;3.20;;;;;;;12.68;88.98;100159.06;5053767;27;97536;-79
2024/04/03 04:54:19;;;;;;;;;;;;;;;12.49;90.59;100166.28;5063694;27;96676;-79
2024/04/03 04:56:45;;;;;;;8.50;3.35;;;;;;;12.97;87.91;100168.13;5064884;27;96749;-79
2024/04/03 04:59:11;;;;;;;;;;;;;;;13.14;86.74;100157.47;5061050;27;99242;-78
2024/04/03 05:01:38;;;;;;;12.50;3.70;;;;;;;13.12;86.23;100162.88;5051614;27;97468;-78
2024/04/03 05:04:07;;;;;;;9.60;3.97;;;;;;;13.42;84.23;100165.59;5051267;27;96775;-79
2024/04/03 05:06:32;;;;;;;6.78;3.50;;;;;;;13.08;85.64;100173.69;5053481;27;96864;-78
2024/04/03 05:08:59;;;;;;;;;;;;;;;13.10;85.37;100164.72;5046999;27;98028;-78
2024/04/03 05:11:26;;;;;;;6.07;2.70;;;;;;;13.01;85.33;100169.66;5055182;27;98915;-78
2024/04/03 05:13:51;;;;;;;5.05;2.85;;;;;;;13.10;85.38;100172.66;5057770;27;97046;-78
2024/04/03 05:16:20;;;;;;;;;;;;;;;12.97;84.99;100171.63;5048489;27;96768;-78
2024/04/03 05:18:46;;;;;;;7.13;2.88;;;;;;;12.79;86.58;100172.63;5051874;27;99261;-77
2024/04/03 05:21:14;;;;;;;10.90;3.40;;;;;;;12.46;88.33;100177.91;5049342;27;101340;-77
2024/04/03 05:23:40;;;;;;;11.85;4.75;;;;;;;12.14;92.00;100176.88;5051340;27;96683;-78
2024/04/03 05:26:07;;;;;;;;;;;;;;;12.08;91.98;100179.84;5056393;27;96841;-78
2024/04/03 05:28:33;;;;;;;9.63;4.03;;;;;;;12.00;92.82;100176.75;5056271;27;99316;-78
2024/04/03 05:31:04;;;;;;;9.52;4.00;;;;;;;12.28;92.32;100187.66;5051408;27;99004;-78
2024/04/03 05:33:29;;;;;;;6.93;4.18;;;;;;;12.40;90.45;100186.19;5051050;27;96789;-79
2024/04/03 05:35:56;;;;;;;;;;;;;;;12.04;92.35;100183.59;5048052;27;96981;-77
2024/04/03 05:38:26;;;;;;;7.75;3.53;;;;;;;12.24;92.66;100191.41;5048160;27;97678;-80
2024/04/03 05:40:54;;;;;;;8.68;3.70;;;;;;;12.68;90.43;100180.28;5050626;27;99117;-79
2024/04/03 05:43:19;;;;;;;8.05;4.10;;;;;;;12.70;89.96;100184.56;5051092;27;97076;-78
2024/04/03 05:45:47;;;;;;;;;;;;;;;13.08;88.78;100193.09;5048643;27;97320;-79
2024/04/03 05:48:13;;;;;;;7.05;3.45;;;;;;;13.29;86.75;100203.53;5045756;27;97782;-78
2024/04/03 05:50:39;;;;;;;8.85;3.42;;;;;;;13.41;86.00;100198.38;5048213;27;98250;-79
2024/04/03 05:53:05;;;;;;;7.88;3.25;;;;;;;13.08;86.80;100206.38;5044182;27;96811;-79
2024/04/03 05:55:32;;;;;;;;;;;;;;;13.16;87.45;100208.66;5047382;27;96798;-79
2024/04/03 05:57:58;;;;;;;10.10;3.78;;;;;;;13.50;85.51;100199.69;5048888;27;97834;-78
2024/04/03 06:00:24;;;;;;;;;;;;;;;13.48;85.51;100204.22;5046887;27;99185;-78
2024/04/03 06:02:50;;;;;;;12.00;4.50;;;;;;;13.11;86.95;100211.53;5045990;27;96761;-77
2024/04/03 06:05:16;;;;;;;;;;;;;;;13.42;85.36;100209.84;5045636;27;99134;-78
2024/04/03 06:07:42;;;;;;;8.67;4.20;;;;;;;13.87;83.51;100212.56;5048311;27;100796;-78
2024/04/03 06:10:10;;;;;;;;;;;;;;;13.61;83.56;100207.88;5041928;27;99565;-78
2024/04/03 06:12:38;;;;;;;7.13;3.60;;;;;;;13.47;84.38;100207.78;5050793;27;96859;-78
2024/04/03 06:15:05;;;;;;;12.65;4.22;;;;;;;13.59;83.89;100220.38;5057676;27;97458;-78
2024/04/03 06:17:31;;;;;;;9.73;4.70;;;;;;;13.80;82.88;100210.34;5045264;27;97788;-80
2024/04/03 06:19:57;;;;;;;;;;;;;;;14.06;82.35;100215.00;5046602;27;100473;-80
2024/04/03 06:22:23;;;;;;;5.97;4.00;;;;;;;14.21;80.48;100211.47;5053701;27;96950;-79
2024/04/03 06:24:49;;;;;;;;;;;;;;;14.11;80.72;100202.31;5043287;27;101227;-78
2024/04/03 06:27:14;;;;;;;9.30;4.20;;;;;;;14.49;79.13;100215.19;5045307;27;101330;-78
2024/04/03 06:29:42;;;;;;;;;;;;;;;14.06;80.24;100211.50;5056566;27;99258;-78
2024/04/03 06:32:07;;;;;;;6.90;3.55;;;;;;;14.35;79.06;100208.88;5041212;27;97013;-77
2024/04/03 06:34:34;;;;;;;;;;;;;;;14.59;77.77;100211.88;5062387;27;96790;-77
2024/04/03 06:37:00;;;;;;;8.77;3.80;;;;;;;14.47;77.61;100207.31;5048013;27;98877;-77
2024/04/03 06:39:26;;;;;;;;;;;;;;;14.50;78.31;100212.44;5050428;27;99137;-76
2024/04/03 06:41:51;;;;;;;9.70;4.25;;;;;;;14.76;77.75;100213.53;5038920;27;96810;-76
2024/04/03 06:44:18;;;;;;;;;;;;;;;14.52;78.15;100207.88;5052650;27;96917;-78
2024/04/03 06:46:46;;;;;;;9.23;3.53;;;;;;;14.57;77.93;100210.28;5050886;27;98942;-76
2024/04/03 06:49:16;;;;;;;6.82;3.92;;;;;;;14.40;77.67;100216.59;5060485;27;100190;-79
2024/04/03 06:51:56;;;;;;;6.32;3.53;;;;;;;13.98;79.30;100228.75;5069622;27;96723;-80
2024/04/03 06:54:22;;;;;;;10.70;3.90;;;;;;;14.08;78.84;100230.88;5053683;27;97175;-79
2024/04/03 06:56:48;;;;;;;5.75;3.25;;;;;;;14.17;77.69;100220.59;5051129;27;98923;-80
2024/04/03 06:59:14;;;;;;;;;;;;;;;13.98;79.59;100231.41;5052837;27;98886;-80
2024/04/03 07:01:40;;;;;;;8.05;3.72;;;;;;;13.90;78.89;100233.66;5045986;27;99211;-80
2024/04/03 07:04:08;;;;;;;;;;;;;;;14.12;79.16;100235.91;5057137;27;98901;-81
2024/04/03 07:06:33;;;;;;;9.73;4.15;;;;;;;14.27;78.33;100235.03;5053317;27;98991;-81
2024/04/03 07:08:59;;;;;;;;;;;;;;;14.30;77.49;100234.88;5056620;27;97562;-80
2024/04/03 07:11:25;;;;;;;9.45;4.70;;;;;;;14.45;77.58;100240.22;5042528;27;96836;-79
2024/04/03 07:13:52;;;;;;;6.38;3.78;;;;;;;13.67;81.05;100244.72;5048106;27;96945;-79
2024/04/03 07:16:18;;;;;;;7.38;4.07;;;;;;;13.87;80.60;100247.09;5051569;27;99253;-79
2024/04/03 07:18:44;;;;;;;;;;;;;;;14.16;79.32;100249.88;5048544;27;100096;-80
2024/04/03 07:21:11;;;;;;;7.68;3.80;;;;;;;14.19;78.75;100255.00;5044789;27;96771;-79
2024/04/03 07:23:37;;;;;;;7.32;4.00;;;;;;;14.39;77.71;100252.09;5063713;27;99022;-79
2024/04/03 07:26:03;;;;;;;9.60;4.85;;;;;;;14.69;76.85;100255.59;5053439;27;98439;-79
2024/04/03 07:28:30;;;;;;;;;;;;;;;15.16;74.94;100260.66;5055704;27;102657;-79
2024/04/03 07:30:56;;;;;;;8.73;4.13;;;;;;;15.41;72.43;100265.31;5050614;27;98476;-79
2024/04/03 07:33:23;;;;;;;11.73;4.70;;;;;;;15.27;72.18;100270.66;5052224;27;98001;-79
2024/04/03 07:35:49;;;;;;;12.07;4.97;;;;;;;14.75;73.25;100268.53;5046660;27;98906;-80
2024/04/03 07:38:19;;;;;;;6.22;4.40;;;;;;;14.77;73.78;100278.22;5048676;27;101016;-80
2024/04/03 07:40:44;;;;;;;9.95;4.40;;;;;;;15.09;73.04;100280.63;5050119;27;96756;-79
2024/04/03 07:43:11;;;;;;;;;;;;;;;15.17;71.88;100277.47;5053954;27;97454;-77
2024/04/03 07:45:36;;;;;;;7.68;4.32;;;;;;;15.30;70.92;100289.06;5049619;27;98965;-79
2024/04/03 07:48:03;;;;;;;;;;;;;;;15.27;70.22;100294.59;5047596;27;99373;-79
2024/04/03 07:50:28;;;;;;;11.57;5.33;;;;;;;15.42;70.25;100292.81;5043873;27;98141;-79
2024/04/03 07:52:55;;;;;;;;;;;;;;;15.61;69.48;100300.53;5051021;27;96874;-79
2024/04/03 07:55:22;;;;;;;12.50;5.00;;;;;;;15.59;69.39;100305.06;5055379;27;98855;-78
2024/04/03 07:57:49;;;;;;;9.48;5.40;;;;;;;15.49;69.64;100307.44;5045109;27;98848;-78
2024/04/03 08:00:14;;;;;;;10.68;5.47;;;;;;;15.77;68.42;100303.91;5044827;27;99501;-79
2024/04/03 08:02:42;;;;;;;;;;;;;;;15.76;67.65;100307.50;5052825;27;96816;-78
2024/04/03 08:05:09;;;;;;;8.77;4.95;;;;;;;15.73;67.29;100318.38;5053205;27;99279;-79
2024/04/03 08:07:36;;;;;;;12.25;6.00;;;;;;;15.47;67.91;100328.84;5055091;27;99417;-78
2024/04/03 08:10:02;;;;;;;18.05;5.65;;;;;;;15.32;67.92;100318.25;5048548;27;96741;-78
2024/04/03 08:12:29;;;;;;;;;;;;;;;15.65;66.79;100318.00;5054520;27;96946;-79
2024/04/03 08:14:56;;;;;;;8.40;5.20;;;;;;;15.75;65.47;100322.63;5056430;27;98898;-80
2024/04/03 08:17:23;;;;;;;9.18;5.40;;;;;;;15.41;66.28;100315.91;5048869;27;100993;-81
2024/04/03 08:19:50;;;;;;;6.97;5.25;;;;;;;15.67;65.84;100319.63;5048019;27;98792;-80
2024/04/03 08:22:17;;;;;;;14.90;6.32;;;;;;;16.07;65.65;100312.59;5046127;27;97209;-80
2024/04/03 08:24:42;;;;;;;7.90;5.60;;;;;;;16.43;63.77;100308.47;5054267;27;98859;-81
2024/04/03 08:27:08;;;;;;;;;;;;;;;16.69;62.49;100311.13;5046787;27;98678;-79
2024/04/03 08:29:37;;;;;;;9.68;5.53;;;;;;;16.82;62.08;100312.97;5058803;27;96941;-79
2024/04/03 08:32:03;;;;;;;16.38;5.53;;;;;;;16.97;61.90;100314.59;5050557;27;96853;-79
2024/04/03 08:34:31;;;;;;;9.98;5.88;;;;;;;16.75;61.96;100317.84;5045818;27;98948;-82
2024/04/03 08:36:57;;;;;;;7.57;5.40;;;;;;;16.65;62.43;100330.97;5053325;27;99836;-79
2024/04/03 08:39:22;;;;;;;7.47;5.53;;;;;;;16.60;62.91;100329.59;5052083;27;96844;-80
2024/04/03 08:41:51;;;;;;;;;;;;;;;16.36;63.00;100329.34;5046058;27;96920;-79
2024/04/03 08:44:19;;;;;;;7.47;5.30;;;;;;;16.81;62.39;100338.78;5061986;27;101258;-79
2024/04/03 08:46:49;;;;;;;12.27;6.28;;;;;;;17.19;61.10;100340.66;5054714;27;98051;-80
2024/04/03 08:49:16;;;;;;;14.07;8.73;;;;;;;16.95;61.39;100338.72;5046956;27;97937;-80
2024/04/03 08:51:49;;;;;;;11.25;5.63;;;;;;;17.07;61.40;100343.19;5038590;27;98268;-80
2024/04/03 08:54:15;;;;;;;14.50;5.03;;;;;;;17.44;60.65;100346.88;5053305;27;98882;-80
2024/04/03 08:56:42;;;;;;;23.33;10.90;;;;;;;16.79;61.48;100353.22;5042253;27;97747;-78
2024/04/03 08:59:08;;;;;;;8.73;4.63;;;;;;;16.33;63.81;100351.75;5056196;27;96802;-79
2024/04/03 09:01:34;;;;;;;8.50;5.13;;;;;;;16.51;63.79;100356.81;5056137;27;96956;-79
2024/04/03 09:04:01;;;;;;;8.77;4.80;;;;;;;15.65;66.46;100355.28;5044052;27;99362;-80
2024/04/03 09:06:38;;;;;;;15.68;5.10;;;;;;;15.41;67.43;100353.19;5047710;27;98030;-80
2024/04/03 09:09:03;;;;;;;8.55;4.90;;;;;;;15.69;66.44;100349.66;5055138;27;97107;-79
2024/04/03 09:11:30;;;;;;;9.25;5.20;;;;;;;16.10;66.53;100348.84;5051829;27;99829;-79
2024/04/03 09:13:56;;;;;;;16.77;5.75;;;;;;;16.36;64.85;100348.00;5043518;27;99291;-78
2024/04/03 09:16:23;;;;;;;;;;;;;;;16.23;64.55;100347.09;5058106;27;99184;-79
2024/04/03 09:19:01;;;;;;;5.85;3.92;;;;;;;16.73;63.72;100359.81;5061081;27;96952;-79
2024/04/03 09:21:29;;;;;;;6.93;5.07;;;;;;;16.85;62.77;100359.00;5043006;27;96836;-80
2024/04/03 09:23:55;;;;;;;6.38;4.80;;;;;;;17.52;61.14;100360.50;5048652;27;102093;-78
2024/04/03 09:26:21;;;;;;;;;;;;;;;17.53;60.32;100361.38;5057946;27;99476;-80
2024/04/03 09:28:58;;;;;;;9.80;4.20;;;;;;;17.70;60.08;100363.75;5054579;27;97424;-80
2024/04/03 09:31:24;;;;;;;7.80;4.28;;;;;;;18.33;57.90;100358.25;5052040;27;96777;-80
2024/04/03 09:33:51;;;;;;;11.10;3.90;;;;;;;18.14;56.81;100351.69;5043805;27;98923;-80
2024/04/03 09:36:18;;;;;;;12.32;4.63;;;;;;;18.07;57.48;100356.63;5053598;27;98744;-80
2024/04/03 09:38:45;;;;;;;7.15;3.67;;;;;;;17.49;59.15;100358.06;5050805;27;96768;-80
2024/04/03 09:41:13;;;;;;;6.72;3.63;;;;;;;17.87;58.26;100360.72;5059653;27;98796;-80
2024/04/03 09:43:43;;;;;;;6.85;3.58;;;;;;;18.14;57.45;100357.03;5051984;27;97864;-80
2024/04/03 09:46:13;;;;;;;7.97;4.07;;;;;;;18.40;57.04;100355.97;5051393;27;102116;-80
2024/04/03 09:48:39;;;;;;;12.05;4.68;;;;;;;18.71;56.30;100360.75;5051794;27;96714;-79
2024/04/03 09:51:06;;;;;;;5.10;3.80;;;;;;;19.17;53.85;100349.22;5043937;27;98038;-80
2024/04/03 09:53:33;;;;;;;11.25;4.35;;;;;;;18.91;54.70;100358.41;5050958;27;98948;-80
2024/04/03 09:56:01;;;;;;;6.93;3.97;;;;;;;18.77;54.86;100356.81;5056299;27;98039;-80
2024/04/03 09:58:26;;;;;;;8.18;3.90;;;;;;;18.92;54.51;100362.78;5055806;27;97058;-80
2024/04/03 10:00:54;;;;;;;;;;;;;;;18.66;54.64;100357.59;5055340;27;97284;-79
2024/04/03 10:03:20;;;;;;;;;;;;;;;18.84;54.94;100352.66;5055862;27;99219;-82
2024/04/03 10:05:48;;;;;;;5.97;3.88;;;;;;;19.27;54.30;100350.22;5056675;27;99108;-80
2024/04/03 10:08:17;;;;;;;7.03;4.97;;;;;;;18.52;54.42;100359.53;5050859;27;98520;-80
2024/04/03 10:10:45;;;;;;;7.05;4.50;;;;;;;18.84;53.58;100355.34;5058339;27;97058;-80
2024/04/03 10:13:18;;;;;;;6.55;3.97;;;;;;;18.70;53.72;100361.75;5052748;27;99293;-81
2024/04/03 10:15:44;;;;;;;8.30;4.30;;;;;;;18.63;54.99;100362.34;5052450;27;99232;-80
2024/04/03 10:18:15;;;;;;;7.78;4.13;;;;;;;18.26;55.29;100367.69;5066559;27;99713;-81
2024/04/03 10:20:42;;;;;;;10.93;4.38;;;;;;;18.26;55.17;100374.84;5043672;27;96747;-81
2024/04/03 10:23:08;;;;;;;8.65;4.22;;;;;;;17.75;57.39;100369.63;5064051;27;101342;-81
2024/04/03 10:25:35;;;;;;;9.18;4.72;;;;;;;17.57;56.67;100368.22;5061166;27;101685;-81
2024/04/03 10:28:02;;;;;;;13.55;5.25;;;;;;;17.34;57.77;100361.81;5058860;27;96862;-80
2024/04/03 10:30:30;;;;;;;8.80;4.57;;;;;;;17.36;57.19;100365.22;5055210;27;97209;-81
2024/04/03 10:32:55;;;;;;;10.32;4.70;;;;;;;17.10;57.63;100367.03;5062270;27;101972;-80
2024/04/03 10:35:22;;;;;;;;;;;;;;;17.40;57.12;100369.38;5054014;27;101571;-81
2024/04/03 10:37:47;;;;;;;12.63;5.10;;;;;;;17.47;57.19;100372.50;5058389;27;97027;-79
2024/04/03 10:40:13;;;;;;;;;;;;;;;17.70;57.03;100369.09;5050906;27;96827;-80
2024/04/03 10:42:39;;;;;;;13.07;5.38;;;;;;;17.84;56.98;100371.66;5054280;27;98816;-80
2024/04/03 10:45:07;;;;;;;;;;;;;;;17.66;57.36;100370.25;5049274;27;98773;-82
2024/04/03 10:47:34;;;;;;;12.32;4.30;;;;;;;18.16;55.07;100371.16;5059045;27;96860;-81
2024/04/03 10:50:01;;;;;;;8.98;4.65;;;;;;;17.91;56.74;100383.63;5055474;27;96855;-81
2024/04/03 10:52:28;;;;;;;15.93;5.18;;;;;;;17.87;56.70;100376.75;5057204;27;98815;-81
2024/04/03 10:54:54;;;;;;;11.00;4.40;;;;;;;17.46;57.71;100381.47;5057450;27;98721;-80
2024/04/03 10:57:20;;;;;;;8.68;4.28;;;;;;;17.14;58.61;100378.34;5056398;27;97586;-80
2024/04/03 10:59:46;;;;;;;;;;;;;;;17.12;59.88;100383.81;5066310;27;96777;-80
2024/04/03 11:02:14;;;;;;;11.38;5.75;;;;;;;17.36;58.60;100375.06;5061453;27;99027;-81
2024/04/03 11:04:42;;;;;;;12.23;4.30;;;;;;;17.48;58.30;100379.53;5062690;27;98798;-80
2024/04/03 11:07:08;;;;;;;10.60;4.30;;;;;;;17.71;58.31;100370.81;5060149;27;96687;-81
2024/04/03 11:09:34;;;;;;;11.02;3.88;;;;;;;17.91;58.10;100380.94;5057835;27;96978;-80
2024/04/03 11:12:01;;;;;;;9.55;4.00;;;;;;;17.81;57.89;100387.03;5057700;27;97929;-82
2024/04/03 11:14:27;;;;;;;11.30;6.32;;;;;;;18.02;57.53;100385.50;5052718;27;97632;-82
2024/04/03 11:16:53;;;;;;;8.23;4.60;;;;;;;17.76;59.00;100386.50;5058900;27;97614;-82
2024/04/03 11:19:19;;;;;;;;;;;;;;;17.93;58.74;100386.16;5052343;27;97077;-80
2024/04/03 11:21:46;;;;;;;11.30;3.97;;;;;;;18.01;58.51;100389.16;5053554;27;98931;-81
2024/04/03 11:24:12;;;;;;;9.30;4.75;;;;;;;17.50;59.52;100391.84;5066752;27;99301;-80
2024/04/03 11:26:38;;;;;;;9.20;4.20;;;;;;;17.12;61.40;100391.81;5053827;27;97157;-81
2024/04/03 11:29:24;;;;;;;;;;;;;;;17.25;62.28;100394.50;5052293;27;97034;-80
2024/04/03 11:31:50;;;;;;;8.73;4.05;;;;;;;17.30;63.03;100392.38;5051325;27;98316;-80
2024/04/03 11:34:16;;;;;;;;;;;;;;;16.45;65.22;100399.91;5059212;27;99128;-81
2024/04/03 11:36:41;;;;;;;7.57;3.33;;;;;;;16.39;65.37;100405.63;5053489;27;97137;-80
2024/04/03 11:39:09;;;;;;;;;;;;;;;16.24;67.27;100404.81;5054684;27;98301;-80
2024/04/03 11:41:34;;;;;;;;;;;;;;;15.72;70.04;100408.09;5052146;27;98945;-81